createdAt,value
2023-01-25T00:00:13.910Z,102280.58
2023-01-25T00:03:02.974Z,102274.33
2023-01-25T00:05:31.939Z,102272.04
2023-01-25T00:08:00.422Z,102267.31
2023-01-25T00:10:29.131Z,102264.83
2023-01-25T00:12:58.130Z,102263.67
2023-01-25T00:15:26.893Z,102261.12
2023-01-25T00:17:55.711Z,102257.88
2023-01-25T00:20:24.383Z,102259.97
2023-01-25T00:22:53.250Z,102259.89
2023-01-25T00:25:22.755Z,102255.70
2023-01-25T00:27:51.768Z,102254.90
2023-01-25T00:30:20.450Z,102256.96
2023-01-25T00:33:03.562Z,102254.66
2023-01-25T00:35:35.442Z,102256.66
2023-01-25T00:38:07.079Z,102259.59
2023-01-25T00:40:35.960Z,102262.38
2023-01-25T00:43:04.764Z,102260.46
2023-01-25T00:45:33.636Z,102259.27
2023-01-25T00:48:02.341Z,102251.56
2023-01-25T00:50:31.623Z,102244.39
2023-01-25T00:53:00.442Z,102240.72
2023-01-25T00:55:29.228Z,102237.54
2023-01-25T00:57:57.885Z,102234.47
2023-01-25T01:00:26.485Z,102233.67
2023-01-25T01:02:55.871Z,102235.58
2023-01-25T01:05:24.759Z,102236.29
2023-01-25T01:07:53.554Z,102233.96
2023-01-25T01:10:22.038Z,102228.85
2023-01-25T01:12:53.198Z,102227.85
2023-01-25T01:15:21.851Z,102223.41
2023-01-25T01:17:50.553Z,102218.48
2023-01-25T01:20:19.250Z,102209.64
2023-01-25T01:22:47.712Z,102204.33
2023-01-25T01:25:16.906Z,102200.49
2023-01-25T01:27:45.411Z,102196.15
2023-01-25T01:30:14.485Z,102191.36
2023-01-25T01:32:43.431Z,102189.32
2023-01-25T01:35:12.363Z,102185.38
2023-01-25T01:37:43.001Z,102177.75
2023-01-25T01:40:15.581Z,102176.98
2023-01-25T01:43:08.227Z,102180.79
2023-01-25T01:45:47.969Z,102177.58
2023-01-25T01:48:27.300Z,102173.05
2023-01-25T01:50:59.743Z,102177.65
2023-01-25T01:53:29.276Z,102178.47
2023-01-25T01:56:00.128Z,102174.49
2023-01-25T01:58:29.617Z,102172.52
2023-01-25T02:00:58.214Z,102163.43
2023-01-25T02:03:27.104Z,102164.36
2023-01-25T02:06:05.809Z,102163.07
2023-01-25T02:08:37.183Z,102164.11
2023-01-25T02:11:05.945Z,102165.22
2023-01-25T02:13:36.411Z,102160.22
2023-01-25T02:16:06.944Z,102157.94
2023-01-25T02:18:35.704Z,102156.36
2023-01-25T02:21:05.365Z,102152.39
2023-01-25T02:23:48.616Z,102151.00
2023-01-25T02:26:19.064Z,102153.09
2023-01-25T02:28:51.392Z,102153.32
2023-01-25T02:31:20.200Z,102162.30
2023-01-25T02:33:49.424Z,102160.98
2023-01-25T02:36:20.267Z,102162.33
2023-01-25T02:39:02.164Z,102157.05
2023-01-25T02:41:34.835Z,102155.10
2023-01-25T02:44:07.603Z,102150.58
2023-01-25T02:46:39.062Z,102149.70
2023-01-25T02:49:09.851Z,102154.82
2023-01-25T02:51:44.436Z,102151.80
2023-01-25T02:54:13.915Z,102148.66
2023-01-25T02:56:43.109Z,102145.36
2023-01-25T02:59:13.743Z,102148.20
2023-01-25T03:01:45.129Z,102151.77
2023-01-25T03:04:14.095Z,102149.74
2023-01-25T03:06:43.504Z,102147.56
2023-01-25T03:09:12.783Z,102144.86
2023-01-25T03:11:44.864Z,102145.17
2023-01-25T03:14:13.750Z,102142.45
2023-01-25T03:16:42.424Z,102140.10
2023-01-25T03:19:11.631Z,102138.35
2023-01-25T03:21:42.181Z,102137.29
2023-01-25T03:24:11.739Z,102135.67
2023-01-25T03:27:03.590Z,102130.67
2023-01-25T03:29:42.017Z,102126.30
2023-01-25T03:32:15.053Z,102126.94
2023-01-25T03:34:44.034Z,102131.66
2023-01-25T03:37:13.106Z,102128.17
2023-01-25T03:39:41.967Z,102128.92
2023-01-25T03:42:11.186Z,102129.36
2023-01-25T03:44:39.949Z,102128.46
2023-01-25T03:47:08.902Z,102126.56
2023-01-25T03:49:37.744Z,102122.55
2023-01-25T03:52:06.934Z,102121.89
2023-01-25T03:54:38.807Z,102120.06
2023-01-25T03:57:08.720Z,102118.97
2023-01-25T03:59:45.691Z,102122.64
2023-01-25T04:02:15.927Z,102120.57
2023-01-25T04:04:44.811Z,102115.40
2023-01-25T04:07:14.141Z,102110.94
2023-01-25T04:09:45.049Z,102110.41
2023-01-25T04:12:13.946Z,102106.58
2023-01-25T04:14:45.004Z,102109.95
2023-01-25T04:17:24.198Z,102106.28
2023-01-25T04:20:15.819Z,102098.92
2023-01-25T04:22:47.805Z,102106.14
2023-01-25T04:25:17.189Z,102101.63
2023-01-25T04:27:51.110Z,102092.70
2023-01-25T04:30:20.062Z,102091.17
2023-01-25T04:32:49.915Z,102088.77
2023-01-25T04:35:27.814Z,102086.45
2023-01-25T04:37:59.033Z,102083.65
2023-01-25T04:40:32.464Z,102080.02
2023-01-25T04:43:01.153Z,102078.16
2023-01-25T04:45:31.191Z,102074.96
2023-01-25T04:48:05.885Z,102075.82
2023-01-25T04:50:35.086Z,102075.47
2023-01-25T04:53:04.485Z,102077.73
2023-01-25T04:55:34.459Z,102076.11
2023-01-25T04:58:04.300Z,102074.42
2023-01-25T05:00:33.923Z,102076.37
2023-01-25T05:03:03.729Z,102075.13
2023-01-25T05:05:32.425Z,102075.21
2023-01-25T05:08:02.520Z,102071.13
2023-01-25T05:10:31.409Z,102065.56
2023-01-25T05:13:38.820Z,102066.13
2023-01-25T05:16:15.820Z,102058.61
2023-01-25T05:18:48.851Z,102057.88
2023-01-25T05:21:44.402Z,102059.45
2023-01-25T05:24:14.583Z,102055.80
2023-01-25T05:27:04.134Z,102056.30
2023-01-25T05:29:51.509Z,102055.88
2023-01-25T05:32:22.125Z,102050.38
2023-01-25T05:34:50.909Z,102045.29
2023-01-25T05:37:21.115Z,102046.38
2023-01-25T05:39:53.722Z,102048.89
2023-01-25T05:42:22.417Z,102043.70
2023-01-25T05:44:51.308Z,102039.45
2023-01-25T05:47:20.405Z,102032.34
2023-01-25T05:49:49.495Z,102036.14
2023-01-25T05:52:23.825Z,102039.52
2023-01-25T05:54:53.027Z,102034.95
2023-01-25T05:57:21.794Z,102035.76
2023-01-25T05:59:50.883Z,102027.10
2023-01-25T06:02:20.601Z,102028.52
2023-01-25T06:04:49.506Z,102028.84
2023-01-25T06:07:18.577Z,102027.29
2023-01-25T06:09:47.387Z,102029.29
2023-01-25T06:12:16.664Z,102030.19
2023-01-25T06:14:47.666Z,102031.73
2023-01-25T06:17:16.405Z,102028.80
2023-01-25T06:20:09.125Z,102024.85
2023-01-25T06:22:37.948Z,102024.23
2023-01-25T06:25:08.013Z,102025.98
2023-01-25T06:27:37.265Z,102020.02
2023-01-25T06:30:06.612Z,102015.60
2023-01-25T06:32:35.544Z,102021.15
2023-01-25T06:35:04.864Z,102023.90
2023-01-25T06:37:33.828Z,102026.60
2023-01-25T06:40:02.624Z,102027.04
2023-01-25T06:42:31.114Z,102026.88
2023-01-25T06:45:01.024Z,102028.23
2023-01-25T06:47:29.827Z,102023.70
2023-01-25T06:49:58.602Z,102022.62
2023-01-25T06:52:27.681Z,102018.14
2023-01-25T06:54:56.387Z,102015.06
2023-01-25T06:57:25.159Z,102015.63
2023-01-25T06:59:53.542Z,102013.66
2023-01-25T07:02:22.747Z,102014.38
2023-01-25T07:04:52.236Z,102011.05
2023-01-25T07:07:20.821Z,102006.66
2023-01-25T07:09:49.525Z,102004.89
2023-01-25T07:12:20.151Z,102000.61
2023-01-25T07:14:50.156Z,101997.29
2023-01-25T07:17:18.635Z,101997.30
2023-01-25T07:19:48.192Z,101996.75
2023-01-25T07:22:18.261Z,101993.21
2023-01-25T07:24:50.433Z,101996.57
2023-01-25T07:27:19.531Z,101996.70
2023-01-25T07:29:48.423Z,102000.94
2023-01-25T07:32:17.099Z,101993.75
2023-01-25T07:34:46.913Z,101993.06
2023-01-25T07:37:15.603Z,101992.86
2023-01-25T07:39:50.837Z,101991.17
2023-01-25T07:42:20.165Z,101989.41
2023-01-25T07:45:13.136Z,101987.31
2023-01-25T07:47:41.791Z,101985.44
2023-01-25T07:50:11.558Z,101984.79
2023-01-25T07:52:40.333Z,101984.57
2023-01-25T07:55:09.645Z,101982.42
2023-01-25T07:57:38.676Z,101978.80
2023-01-25T08:00:10.361Z,101974.44
2023-01-25T08:02:42.206Z,101973.27
2023-01-25T08:05:11.647Z,101973.89
2023-01-25T08:07:40.708Z,101972.98
2023-01-25T08:10:11.162Z,101967.41
2023-01-25T08:12:40.095Z,101959.78
2023-01-25T08:15:10.334Z,101960.23
2023-01-25T08:17:39.604Z,101959.66
2023-01-25T08:20:09.359Z,101959.83
2023-01-25T08:22:38.128Z,101957.61
2023-01-25T08:25:08.550Z,101953.58
2023-01-25T08:27:37.855Z,101949.84
2023-01-25T08:30:07.253Z,101951.64
2023-01-25T08:32:37.316Z,101950.38
2023-01-25T08:35:08.425Z,101948.80
2023-01-25T08:37:38.325Z,101948.98
2023-01-25T08:40:08.618Z,101953.30
2023-01-25T08:42:37.546Z,101952.93
2023-01-25T08:45:07.320Z,101950.91
2023-01-25T08:47:36.548Z,101951.59
2023-01-25T08:50:07.189Z,101950.76
2023-01-25T08:52:37.194Z,101947.39
2023-01-25T08:55:07.226Z,101939.77
2023-01-25T08:57:36.104Z,101938.91
2023-01-25T09:00:05.985Z,101934.27
2023-01-25T09:02:34.809Z,101931.09
2023-01-25T09:05:04.109Z,101924.48
2023-01-25T09:07:38.070Z,101917.09
2023-01-25T09:13:51.186Z,101904.96
2023-01-25T09:16:32.245Z,101902.04
2023-01-25T09:19:03.436Z,101897.91
2023-01-25T09:21:33.395Z,101900.42
2023-01-25T09:24:06.334Z,101904.32
2023-01-25T09:26:40.850Z,101908.31
2023-01-25T09:29:12.327Z,101907.08
2023-01-25T09:31:44.307Z,101902.96
2023-01-25T09:34:26.109Z,101900.70
2023-01-25T11:46:52.117Z,101721.86
2023-01-25T11:49:52.928Z,101715.63
2023-01-25T11:52:42.699Z,101711.48
2023-01-25T11:55:32.726Z,101705.98
2023-01-25T11:58:27.682Z,101698.53
2023-01-25T12:01:11.429Z,101692.18
2023-01-25T12:03:53.175Z,101686.71
2023-01-25T12:06:27.940Z,101689.21
2023-01-25T12:09:15.161Z,101685.73
2023-01-25T12:12:16.933Z,101671.19
2023-01-25T12:15:11.726Z,101663.45
2023-01-25T12:17:57.632Z,101661.65
2023-01-25T12:20:31.826Z,101660.11
2023-01-25T12:23:37.689Z,101650.01
2023-01-25T12:26:25.210Z,101641.50
2023-01-25T12:29:10.698Z,101642.19
2023-01-25T12:31:46.647Z,101636.76
2023-01-25T12:34:23.514Z,101637.03
2023-01-25T12:36:52.626Z,101632.14
2023-01-25T12:39:32.172Z,101627.86
2023-01-25T12:42:09.472Z,101624.66
2023-01-25T12:44:43.968Z,101619.34
2023-01-25T12:47:22.069Z,101615.34
2023-01-25T12:50:16.879Z,101614.88
2023-01-25T12:53:10.749Z,101612.66
2023-01-25T12:55:40.668Z,101609.48
2023-01-25T12:58:48.775Z,101612.70
2023-01-25T13:01:25.985Z,101610.88
2023-01-25T13:04:03.227Z,101604.68
2023-01-25T13:06:59.388Z,101599.79
2023-01-25T13:09:44.961Z,101594.58
2023-01-25T13:12:14.355Z,101588.72
2023-01-25T13:14:43.351Z,101582.94
2023-01-25T13:17:36.392Z,101581.39
2023-01-25T13:20:49.131Z,101579.23
2023-01-25T13:23:33.077Z,101574.88
2023-01-25T13:26:26.740Z,101572.72
2023-01-25T13:29:01.050Z,101574.09
2023-01-25T13:31:51.035Z,101571.83
2023-01-25T13:34:39.567Z,101571.64
2023-01-25T13:37:30.805Z,101566.94
2023-01-25T13:40:07.256Z,101567.09
2023-01-25T13:42:38.682Z,101570.05
2023-01-25T13:45:21.317Z,101567.52
2023-01-25T13:48:04.579Z,101567.40
2023-01-25T13:50:38.690Z,101562.14
2023-01-25T13:53:19.348Z,101564.08
2023-01-25T13:55:54.083Z,101561.71
2023-01-25T13:58:28.101Z,101559.49
2023-01-25T14:01:14.475Z,101558.14
2023-01-25T14:04:02.635Z,101558.12
2023-01-25T14:06:36.673Z,101557.69
2023-01-25T14:09:12.911Z,101555.69
2023-01-25T14:12:01.931Z,101553.63
2023-01-25T14:14:36.380Z,101551.34
2023-01-25T14:17:21.521Z,101545.48
2023-01-25T14:19:56.152Z,101542.09
2023-01-25T14:22:33.464Z,101541.12
2023-01-25T14:25:15.920Z,101538.55
2023-01-25T14:28:00.146Z,101530.13
2023-01-25T14:30:34.067Z,101525.53
2023-01-25T14:33:24.829Z,101525.52
2023-01-25T14:35:58.549Z,101519.46
2023-01-25T14:38:38.844Z,101514.91
2023-01-25T14:41:20.281Z,101509.69
2023-01-25T14:43:54.142Z,101505.90
2023-01-25T14:46:27.640Z,101499.88
2023-01-25T14:49:26.079Z,101496.11
2023-01-25T14:52:03.670Z,101495.16
2023-01-25T14:54:36.011Z,101487.33
2023-01-25T14:57:07.204Z,101484.13
2023-01-25T14:59:53.169Z,101479.38
2023-01-25T15:02:27.934Z,101472.48
2023-01-25T15:05:14.760Z,101470.20
2023-01-25T15:07:50.301Z,101468.13
2023-01-25T15:10:24.578Z,101460.23
2023-01-25T15:13:20.553Z,101454.66
2023-01-25T15:15:58.610Z,101451.73
2023-01-25T15:18:47.792Z,101455.65
2023-01-25T15:21:30.380Z,101448.86
2023-01-25T15:24:05.675Z,101444.80
2023-01-25T15:26:37.007Z,101443.61
2023-01-25T15:29:17.034Z,101447.14
2023-01-25T15:31:45.913Z,101447.08
2023-01-25T15:34:24.963Z,101442.23
2023-01-25T15:36:53.935Z,101443.83
2023-01-25T15:39:22.931Z,101440.73
2023-01-25T15:41:52.536Z,101437.94
2023-01-25T15:44:23.586Z,101432.36
2023-01-25T15:46:54.210Z,101431.21
2023-01-25T15:49:28.405Z,101428.76
2023-01-25T15:51:57.404Z,101423.52
2023-01-25T15:54:26.825Z,101420.92
2023-01-25T15:56:59.193Z,101420.19
2023-01-25T15:59:28.728Z,101415.53
2023-01-25T16:01:57.886Z,101409.83
2023-01-25T16:04:28.208Z,101405.23
2023-01-25T16:06:58.017Z,101405.92
2023-01-25T16:09:30.092Z,101405.44
2023-01-25T16:12:01.934Z,101400.92
2023-01-25T16:14:32.118Z,101400.80
2023-01-25T16:17:04.761Z,101395.39
2023-01-25T16:19:34.549Z,101394.84
2023-01-25T16:22:05.092Z,101392.25
2023-01-25T16:24:34.385Z,101386.91
2023-01-25T16:27:10.783Z,101379.69
2023-01-25T16:29:42.038Z,101375.52
2023-01-25T16:32:14.021Z,101376.79
2023-01-25T16:34:43.924Z,101378.25
2023-01-25T16:37:19.637Z,101377.34
2023-01-25T16:39:49.963Z,101374.19
2023-01-25T16:42:22.993Z,101371.75
2023-01-25T16:44:53.563Z,101369.45
2023-01-25T16:47:24.028Z,101365.73
2023-01-25T16:49:53.593Z,101361.52
2023-01-25T16:52:27.098Z,101360.94
2023-01-25T16:54:59.999Z,101361.69
2023-01-25T16:57:30.105Z,101360.34
2023-01-25T17:00:02.161Z,101356.30
2023-01-25T17:02:32.909Z,101350.79
2023-01-25T17:05:02.972Z,101350.58
2023-01-25T17:07:33.339Z,101348.84
2023-01-25T17:10:07.017Z,101342.14
2023-01-25T17:12:38.170Z,101340.02
2023-01-25T17:15:09.493Z,101335.46
2023-01-25T17:17:39.927Z,101333.63
2023-01-25T17:20:14.207Z,101331.23
2023-01-25T17:22:47.344Z,101328.23
2023-01-25T17:25:18.919Z,101320.92
2023-01-25T17:27:51.233Z,101318.80
2023-01-25T17:30:23.704Z,101316.07
2023-01-25T17:32:53.729Z,101315.41
2023-01-25T17:35:24.564Z,101312.70
2023-01-25T17:37:55.505Z,101314.69
2023-01-25T17:40:28.725Z,101308.94
2023-01-25T17:42:59.481Z,101307.06
2023-01-25T17:45:32.398Z,101309.21
2023-01-25T17:48:03.389Z,101310.96
2023-01-25T17:50:34.592Z,101309.02
2023-01-25T17:53:06.477Z,101303.02
2023-01-25T17:55:37.970Z,101306.02
2023-01-25T17:58:14.630Z,101300.83
2023-01-25T18:01:02.162Z,101296.25
2023-01-25T18:03:44.903Z,101292.70
2023-01-25T18:06:19.363Z,101286.52
2023-01-25T18:08:53.671Z,101284.29
2023-01-25T18:11:28.065Z,101281.96
2023-01-25T18:14:01.831Z,101277.81
2023-01-25T18:16:33.555Z,101275.11
2023-01-25T18:19:08.435Z,101274.41
2023-01-25T18:21:39.895Z,101272.39
2023-01-25T18:24:27.135Z,101274.11
2023-01-25T18:27:10.121Z,101268.81
2023-01-25T18:29:52.335Z,101266.66
2023-01-25T18:32:23.684Z,101263.66
2023-01-25T18:34:55.672Z,101261.98
2023-01-25T18:37:31.303Z,101261.38
2023-01-25T18:40:01.947Z,101260.60
2023-01-25T18:42:33.448Z,101258.18
2023-01-25T18:45:04.378Z,101255.46
2023-01-25T18:47:35.671Z,101254.41
2023-01-25T18:50:07.235Z,101252.75
2023-01-25T18:52:39.653Z,101249.30
2023-01-25T18:55:12.876Z,101243.60
2023-01-25T18:57:45.817Z,101236.54
2023-01-25T19:00:21.351Z,101231.55
2023-01-25T19:02:54.082Z,101227.09
2023-01-25T19:05:27.185Z,101227.65
2023-01-25T19:07:58.455Z,101221.44
2023-01-25T19:10:30.505Z,101218.91
2023-01-25T19:13:02.373Z,101220.15
2023-01-25T19:15:39.541Z,101214.27
2023-01-25T19:18:11.107Z,101213.02
2023-01-25T19:20:42.283Z,101203.21
2023-01-25T19:23:13.011Z,101199.29
2023-01-25T19:25:47.131Z,101197.96
2023-01-25T19:28:18.649Z,101196.71
2023-01-25T19:30:52.198Z,101198.17
2023-01-25T19:33:24.126Z,101199.36
2023-01-25T19:36:02.111Z,101198.75
2023-01-25T19:38:45.502Z,101198.67
2023-01-25T19:41:24.088Z,101195.08
2023-01-25T19:44:03.810Z,101192.27
2023-01-25T19:46:42.214Z,101192.48
2023-01-25T19:49:17.348Z,101191.41
2023-01-25T19:51:54.358Z,101187.54
2023-01-25T19:54:26.205Z,101187.05
2023-01-25T19:56:59.641Z,101184.89
2023-01-25T19:59:31.193Z,101176.94
2023-01-25T20:02:04.078Z,101175.77
2023-01-25T20:04:37.663Z,101175.49
2023-01-25T20:07:12.709Z,101175.52
2023-01-25T20:09:45.098Z,101166.79
2023-01-25T20:12:16.161Z,101166.00
2023-01-25T20:14:45.834Z,101164.16
2023-01-25T20:17:18.254Z,101163.27
2023-01-25T20:19:52.275Z,101165.07
2023-01-25T20:22:28.296Z,101153.77
2023-01-25T20:25:01.436Z,101149.84
2023-01-25T20:27:37.511Z,101143.48
2023-01-25T20:30:10.434Z,101140.46
2023-01-25T20:32:42.610Z,101138.55
2023-01-25T20:35:19.261Z,101136.35
2023-01-25T20:37:54.997Z,101125.61
2023-01-25T20:40:25.928Z,101118.06
2023-01-25T20:42:57.641Z,101117.56
2023-01-25T20:45:30.407Z,101111.95
2023-01-25T20:48:03.863Z,101109.73
2023-01-25T20:50:35.043Z,101103.02
2023-01-25T20:53:05.992Z,101094.08
2023-01-25T20:55:36.969Z,101093.33
2023-01-25T20:58:14.261Z,101095.17
2023-01-25T21:00:46.506Z,101097.54
2023-01-25T21:03:17.282Z,101092.34
2023-01-25T21:06:05.590Z,101084.37
2023-01-25T21:08:36.531Z,101083.67
2023-01-25T21:11:09.957Z,101084.83
2023-01-25T21:13:43.409Z,101090.86
2023-01-25T21:16:20.370Z,101084.34
2023-01-25T21:18:53.464Z,101078.58
2023-01-25T21:21:28.964Z,101081.60
2023-01-25T21:24:03.342Z,101083.41
2023-01-25T21:26:35.525Z,101085.58
2023-01-25T21:29:08.033Z,101088.67
2023-01-25T21:31:39.911Z,101086.55
2023-01-25T21:34:12.586Z,101086.05
2023-01-25T21:36:45.690Z,101090.70
2023-01-25T21:39:18.826Z,101093.09
2023-01-25T21:41:49.794Z,101090.68
2023-01-25T21:44:38.174Z,101086.85
2023-01-25T21:47:29.453Z,101082.59
2023-01-25T21:50:19.478Z,101085.80
2023-01-25T21:52:48.405Z,101085.46
2023-01-25T21:55:17.552Z,101080.00
2023-01-25T21:57:47.783Z,101075.43
2023-01-25T22:00:17.798Z,101070.34
2023-01-25T22:02:46.713Z,101070.77
2023-01-25T22:05:16.602Z,101068.25
2023-01-25T22:07:45.691Z,101059.60
2023-01-25T22:10:14.608Z,101062.72
2023-01-25T22:12:43.984Z,101063.58
2023-01-25T22:15:12.779Z,101065.92
2023-01-25T22:17:41.356Z,101061.02
2023-01-25T22:20:11.417Z,101054.44
2023-01-25T22:22:40.772Z,101056.06
2023-01-25T22:25:10.229Z,101055.09
2023-01-25T22:27:47.243Z,101049.15
2023-01-25T22:30:16.153Z,101039.35
2023-01-25T22:32:45.253Z,101032.05
2023-01-25T22:35:14.952Z,101035.49
2023-01-25T22:37:43.942Z,101033.16
2023-01-25T22:40:13.526Z,101025.00
2023-01-25T22:42:42.328Z,101023.64
2023-01-25T22:45:11.796Z,101020.14
2023-01-25T22:47:42.291Z,101010.75
2023-01-25T22:50:12.105Z,101006.16
2023-01-25T22:52:40.993Z,100998.86
2023-01-25T22:55:10.162Z,100997.16
2023-01-25T22:57:38.750Z,100999.50
2023-01-25T23:00:09.590Z,101001.20
2023-01-25T23:02:38.369Z,100993.15
2023-01-25T23:05:08.065Z,100990.44
2023-01-25T23:07:36.562Z,100986.73
2023-01-25T23:10:06.261Z,100984.02
2023-01-25T23:12:35.272Z,100979.31
2023-01-25T23:15:11.853Z,100976.84
2023-01-25T23:17:59.277Z,100975.25
2023-01-25T23:20:28.995Z,100971.03
2023-01-25T23:22:57.553Z,100968.96
2023-01-25T23:25:26.255Z,100963.02
2023-01-25T23:27:55.137Z,100957.41
2023-01-25T23:30:25.138Z,100957.92
2023-01-25T23:32:53.831Z,100953.54
2023-01-25T23:35:22.831Z,100950.52
2023-01-25T23:37:51.511Z,100946.38
2023-01-25T23:40:20.621Z,100945.80
2023-01-25T23:42:49.195Z,100940.48
2023-01-25T23:45:18.290Z,100937.07
2023-01-25T23:47:46.969Z,100939.76
2023-01-25T23:50:15.460Z,100940.89
2023-01-25T23:52:44.129Z,100941.50
2023-01-25T23:55:12.719Z,100938.17
2023-01-25T23:57:41.760Z,100937.40
